Latest Weather Observations for Wyndham Airport

IDD60801

Issued at 10:35 pm CST Monday 20 October 2014 (issued every 30 minutes, with the page automatically refreshed every 10 minutes)

About weather observations | Map of weather stations | Latest weather observations for NT | Other Formats
Station Details ID: 001006 Name: WYNDHAM AERO Lat: -15.51 Lon: 128.15 Height: 3.8 m
Data from the previous 72 hours. | See also: Recent months for locations in Northern Territory
Date/Time
CST
Temp
°C
App
Temp
°C
Dew
Point
Rel
Hum
%
Delta-T
°C
Wind Press
QNH
hPa
Press
MSL
hPa
Rain
since 9 am
mm
Dir
 
Spd
km/h
Gust
km/h
Spd
kts
Gust
kts
20/10:30pm 30.0 32.1 17.1 46 8.1 N 2 7 1 4 1012.5 1012.5 0.0
20/10:00pm 31.2 32.4 16.8 42 9.1 N 6 13 3 7 1012.4 1012.4 0.0
20/09:30pm 31.7 33.7 18.7 46 8.4 W 6 13 3 7 1012.1 1012.1 0.0
20/09:00pm 31.9 32.2 18.8 45 8.5 N 15 26 8 14 1011.6 1011.6 0.0
20/08:30pm 32.3 31.8 17.7 41 9.4 N 17 20 9 11 1011.1 1011.1 0.0
20/08:00pm 32.5 31.4 17.2 40 9.7 N 19 26 10 14 1010.7 1010.7 0.0
20/07:30pm 33.2 31.5 15.7 35 10.9 N 19 26 10 14 1010.3 1010.3 0.0
20/07:00pm 34.1 32.0 14.6 31 12.0 N 19 26 10 14 1009.8 1009.8 0.0
20/06:30pm 35.0 32.0 14.8 29 12.6 N 24 30 13 16 1009.5 1009.5 0.0
20/06:00pm 35.9 33.0 15.1 29 13.0 N 24 30 13 16 1009.3 1009.3 0.0
20/05:30pm 36.7 33.6 14.6 26 13.8 N 24 33 13 18 1009.1 1009.1 0.0
20/05:00pm 37.2 34.9 15.6 27 13.7 N 22 32 12 17 1008.8 1008.8 0.0
20/04:30pm 37.8 37.5 14.4 25 14.6 NNW 9 15 5 8 1008.9 1008.9 0.0
20/04:00pm 38.5 35.9 15.0 25 14.8 N 22 33 12 18 1009.0 1009.0 0.0
20/03:30pm 38.1 35.0 14.6 24 14.7 N 24 39 13 21 1009.3 1009.3 0.0
20/03:00pm 38.2 37.5 12.0 21 15.8 NE 7 17 4 9 1009.6 1009.6 0.0
20/02:30pm 38.7 38.1 11.7 20 16.3 ENE 6 15 3 8 1010.0 1010.0 0.0
20/02:00pm 38.9 37.3 14.0 23 15.5 E 15 22 8 12 1010.6 1010.6 0.0
20/01:30pm 38.0 37.7 14.5 24 14.7 N 9 19 5 10 1011.2 1011.2 0.0
20/01:00pm 37.7 37.6 14.9 26 14.3 W 9 17 5 9 1011.9 1011.9 0.0
20/12:30pm 37.3 37.5 15.7 27 13.7 W 9 15 5 8 1012.5 1012.5 0.0
20/12:00pm 37.0 37.1 16.5 29 13.1 NNW 11 19 6 10 1013.2 1013.2 0.0
20/11:30am 35.3 35.6 17.0 33 11.7 WNW 11 20 6 11 1013.7 1013.7 0.0
20/11:00am 34.9 35.3 17.2 35 11.4 W 11 20 6 11 1014.1 1014.1 0.0
20/10:30am 33.6 34.2 17.7 38 10.2 W 11 17 6 9 1014.4 1014.4 0.0
20/10:00am 33.1 34.2 18.8 42 9.3 W 11 17 6 9 1014.5 1014.5 0.0
20/09:30am 31.9 33.8 19.8 48 8.0 WSW 9 13 5 7 1014.5 1014.5 0.0
20/09:00am 30.4 34.0 19.7 52 7.0 CALM 0 9 0 5 1014.7 1014.7 0.0
20/08:30am 29.1 30.9 20.3 59 5.8 E 11 17 6 9 1014.7 1014.7 0.0
20/08:00am 28.1 28.6 20.1 62 5.2 ESE 17 20 9 11 1014.5 1014.5 0.0
20/07:30am 26.6 27.5 20.0 67 4.3 ESE 15 19 8 10 1014.0 1014.0 0.0
20/07:00am 25.7 25.9 18.6 65 4.5 ESE 15 20 8 11 1013.6 1013.6 0.0
20/06:30am 24.6 24.2 17.1 63 4.6 E 15 20 8 11 1013.1 1013.1 0.0
20/06:00am 24.5 25.4 16.7 61 4.8 E 7 9 4 5 1012.3 1012.3 0.0
20/05:30am 24.9 25.2 17.1 62 4.8 E 11 13 6 7 1012.0 1012.0 0.0
20/05:00am 25.0 25.6 16.7 60 5.1 ESE 9 13 5 7 1011.5 1011.5 0.0
20/04:30am 25.6 25.6 16.2 56 5.8 ENE 11 13 6 7 1011.4 1011.4 0.0
20/04:00am 26.4 25.5 14.8 49 7.0 E 13 15 7 8 1011.2 1011.2 0.0
20/03:30am 26.5 26.6 13.9 45 7.5 ESE 6 13 3 7 1011.0 1011.0 0.0
20/03:00am 28.3 28.7 16.2 47 7.5 N 9 13 5 7 1010.8 1010.8 0.0
20/02:30am 26.8 26.5 14.5 46 7.4 WNW 9 11 5 6 1010.8 1010.8 0.0
20/02:00am 26.0 25.8 14.8 50 6.7 NNW 9 13 5 7 1011.1 1011.1 0.0
20/01:30am 26.8 27.5 15.5 50 6.9 W 6 9 3 5 1011.3 1011.3 0.0
20/01:00am 26.5 25.2 12.5 41 8.1 WNW 11 13 6 7 1011.4 1011.4 0.0
20/12:30am 26.2 27.0 12.6 43 7.9 CALM 0 6 0 3 1011.3 1011.3 0.0
20/12:00am 26.7 27.5 12.4 41 8.3 CALM 0 0 0 0 1011.5 1011.5 0.0
 
Date/Time
CST
Temp
°C
App
Temp
°C
Dew
Point
Rel
Hum
%
Delta-T
°C
Wind Press
QNH
hPa
Press
MSL
hPa
Rain
since 9 am
mm
Dir
 
Spd
km/h
Gust
km/h
Spd
kts
Gust
kts
19/11:30pm 27.7 27.7 12.5 39 8.9 ESE 4 11 2 6 1011.9 1011.9 0.0
19/11:00pm 29.8 29.9 14.0 38 9.5 W 6 7 3 4 1012.0 1012.0 0.0
19/10:30pm 29.7 28.9 13.0 35 9.9 S 9 11 5 6 1012.1 1012.1 0.0
19/10:00pm 29.8 29.2 13.5 36 9.7 SW 9 13 5 7 1011.8 1011.8 0.0
19/09:30pm 31.8 30.9 12.6 31 11.4 NNW 9 13 5 7 1011.5 1011.5 0.0
19/09:00pm 32.5 30.9 12.7 30 11.8 NNW 13 15 7 8 1011.3 1011.3 0.0
19/08:30pm 32.9 29.9 12.0 28 12.4 N 19 24 10 13 1011.0 1011.0 0.0
19/08:00pm 33.2 30.1 12.2 28 12.5 N 20 26 11 14 1010.6 1010.6 0.0
19/07:30pm 33.6 29.9 12.6 28 12.6 N 24 32 13 17 1010.3 1010.3 0.0
19/07:00pm 34.1 30.5 13.0 28 12.7 N 24 28 13 15 1010.1 1010.1 0.0
19/06:30pm 34.8 31.6 13.0 26 13.2 N 22 30 12 16 1009.8 1009.8 0.0
19/06:00pm 35.7 33.1 13.8 27 13.4 NNW 20 26 11 14 1009.5 1009.5 0.0
19/05:30pm 36.4 33.4 13.8 26 13.9 NNW 22 30 12 16 1009.2 1009.2 0.0
19/05:00pm 36.5 33.0 13.3 25 14.2 NNW 24 32 13 17 1009.0 1009.0 0.0
19/04:30pm 37.7 35.0 13.0 23 15.1 NNW 19 26 10 14 1009.1 1009.1 0.0
19/04:00pm 37.6 34.1 12.3 22 15.3 NNW 22 30 12 16 1009.4 1009.4 0.0
19/03:30pm 38.0 34.0 11.9 21 15.7 NNW 24 37 13 20 1009.5 1009.5 0.0
19/03:00pm 38.2 34.3 12.0 21 15.8 NNW 24 32 13 17 1010.0 1010.0 0.0
19/02:30pm 37.4 33.7 11.4 21 15.5 NNW 22 32 12 17 1010.3 1010.3 0.0
19/02:00pm 38.1 34.4 9.6 18 16.6 N 19 33 10 18 1010.7 1010.7 0.0
19/01:30pm 37.7 34.2 10.9 20 15.9 NNW 20 28 11 15 1011.2 1011.2 0.0
19/01:00pm 36.8 33.1 9.4 19 15.8 N 19 32 10 17 1011.8 1011.8 0.0
19/12:30pm 37.0 33.5 7.0 16 16.7 N 15 24 8 13 1012.3 1012.3 0.0
19/12:00pm 37.0 32.5 4.0 13 17.6 N 17 24 9 13 1012.9 1012.9 0.0
19/11:30am 34.9 31.9 6.2 17 15.6 NNE 11 22 6 12 1013.3 1013.3 0.0
19/11:00am 35.2 31.4 3.7 14 16.5 N 13 20 7 11 1013.8 1013.8 0.0
19/10:30am 34.3 30.5 4.0 15 15.9 NE 13 20 7 11 1014.0 1014.0 0.0
19/10:00am 33.1 31.3 7.9 21 14.0 NNE 7 15 4 8 1014.2 1014.2 0.0
19/09:30am 30.7 29.3 9.6 27 11.9 E 7 11 4 6 1014.3 1014.3 0.0
19/09:00am 28.5 26.9 11.6 35 9.7 ESE 11 15 6 8 1014.2 1014.2 0.0
19/08:30am 25.9 23.1 13.1 45 7.5 ESE 20 26 11 14 1014.2 1014.2 0.0
19/08:00am 25.2 22.7 13.4 48 6.9 ESE 19 24 10 13 1013.9 1013.9 0.0
19/07:30am 22.7 21.5 12.9 54 5.6 E 11 13 6 7 1013.2 1013.2 0.0
19/07:00am 20.3 17.5 10.1 52 5.5 E 15 17 8 9 1012.8 1012.8 0.0
19/06:30am 19.8 17.4 8.5 48 5.9 E 11 15 6 8 1012.6 1012.6 0.0
19/06:00am 20.6 19.8 8.3 45 6.4 S 2 9 1 5 1012.1 1012.1 0.0
19/05:30am 22.0 21.3 8.5 42 7.1 S 2 9 1 5 1011.7 1011.7 0.0
19/05:00am 22.6 21.1 8.3 40 7.5 WSW 6 11 3 6 1011.2 1011.2 0.0
19/04:30am 21.7 19.9 7.9 41 7.2 WNW 7 7 4 4 1011.0 1011.0 0.0
19/04:00am 21.2 19.5 8.5 44 6.7 NW 7 9 4 5 1010.9 1010.9 0.0
19/03:30am 22.1 20.2 7.5 39 7.6 WSW 7 9 4 5 1010.7 1010.7 0.0
19/03:00am 21.9 20.3 8.1 41 7.2 NW 6 7 3 4 1010.6 1010.6 0.0
19/02:30am 23.5 22.0 8.4 38 8.0 W 6 7 3 4 1010.8 1010.8 0.0
19/02:00am 22.2 21.6 9.0 43 7.0 WSW 2 7 1 4 1011.0 1011.0 0.0
19/01:30am 21.3 20.5 9.5 47 6.3 N 4 6 2 3 1011.3 1011.3 0.0
19/01:00am 21.1 20.0 10.0 49 6.0 SE 6 7 3 4 1011.3 1011.3 0.0
19/12:30am 21.2 19.5 8.5 44 6.7 ESE 7 9 4 5 1011.5 1011.5 0.0
19/12:00am 22.5 21.0 8.6 41 7.4 ESE 6 7 3 4 1011.7 1011.7 0.0
 
Date/Time
CST
Temp
°C
App
Temp
°C
Dew
Point
Rel
Hum
%
Delta-T
°C
Wind Press
QNH
hPa
Press
MSL
hPa
Rain
since 9 am
mm
Dir
 
Spd
km/h
Gust
km/h
Spd
kts
Gust
kts
18/11:30pm 23.9 22.7 9.5 40 7.8 E 6 7 3 4 1011.9 1011.9 0.0
18/11:00pm 24.9 23.0 9.2 37 8.5 E 9 9 5 5 1012.0 1012.0 0.0
18/10:30pm 26.1 23.2 8.1 32 9.7 E 13 15 7 8 1011.9 1011.9 0.0
18/10:00pm 26.7 24.9 3.2 22 11.6 S 2 7 1 4 1011.7 1011.7 0.0
18/09:30pm 29.9 26.6 4.5 20 13.1 NW 11 13 6 7 1011.5 1011.5 0.0
18/09:00pm 30.5 27.3 5.0 20 13.3 NNW 11 17 6 9 1011.2 1011.2 0.0
18/08:30pm 31.7 27.1 3.7 17 14.4 N 17 24 9 13 1010.9 1010.9 0.0
18/08:00pm 31.9 26.5 4.6 18 14.3 N 22 33 12 18 1010.6 1010.6 0.0
18/07:30pm 32.0 27.2 5.5 19 14.1 N 20 30 11 16 1010.2 1010.2 0.0
18/07:00pm 32.9 26.8 2.9 15 15.3 N 24 32 13 17 1009.8 1009.8 0.0
18/06:30pm 33.9 27.6 3.6 15 15.8 N 26 33 14 18 1009.6 1009.6 0.0
18/06:00pm 35.2 28.5 3.7 14 16.5 N 28 35 15 19 1009.3 1009.3 0.0
18/05:30pm 36.1 30.3 8.0 18 15.9 N 28 35 15 19 1008.9 1008.9 0.0
18/05:00pm 36.4 29.9 8.3 18 15.9 N 32 39 17 21 1008.6 1008.6 0.0
18/04:30pm 37.4 31.3 6.4 15 17.2 N 28 39 15 21 1008.7 1008.7 0.0
18/04:00pm 38.1 31.0 3.8 12 18.3 NNW 30 41 16 22 1008.9 1008.9 0.0
18/03:30pm 39.0 33.7 -7.4 5 21.0 ENE 13 26 7 14 1009.1 1009.1 0.0
18/03:00pm 39.1 34.5 -7.4 5 21.0 NE 9 19 5 10 1009.4 1009.4 0.0
18/02:30pm 38.6 33.6 -7.7 5 20.8 ESE 11 20 6 11 1009.7 1009.7 0.0
18/02:00pm 38.9 31.5 -7.5 5 20.9 ENE 24 32 13 17 1010.2 1010.2 0.0
18/01:30pm 38.9 32.2 -7.5 5 20.9 ENE 20 28 11 15 1010.8 1010.8 0.0
18/01:00pm 39.5 32.1 -7.1 5 21.2 E 24 35 13 19 1011.2 1011.2 0.0
18/12:30pm 37.8 30.7 -8.3 5 20.3 ENE 22 32 12 17 1012.1 1012.1 0.0
18/12:00pm 37.7 31.2 -6.0 6 20.0 ENE 20 30 11 16 1012.8 1012.8 0.0
18/11:30am 37.0 30.1 -6.5 6 19.6 ENE 22 33 12 18 1013.4 1013.4 0.0
18/11:00am 35.8 29.0 -5.3 7 18.7 ENE 22 37 12 20 1013.9 1013.9 0.0
18/10:30am 35.4 27.8 -5.6 7 18.5 E 26 41 14 22 1014.3 1014.3 0.0
18/10:00am 34.1 27.5 -6.5 7 17.9 E 20 30 11 16 1014.5 1014.5 0.0
18/09:30am 30.7 27.7 1.1 15 14.5 WSW 6 7 3 4 1014.7 1014.7 0.0
18/09:00am 28.5 26.1 5.4 23 12.0 W 7 11 4 6 1014.7 1014.7 0.0
18/08:30am 26.9 24.7 5.2 25 11.1 W 6 9 3 5 1014.5 1014.5 0.0
18/08:00am 25.1 23.2 7.7 33 9.2 NW 7 9 4 5 1014.2 1014.2 0.0
18/07:30am 22.2 20.2 7.2 38 7.7 WNW 7 9 4 5 1013.9 1013.9 0.0
18/07:00am 18.9 16.4 3.5 36 7.2 W 6 11 3 6 1013.5 1013.5 0.0
18/06:30am 18.0 16.4 2.7 36 7.0 CALM 0 0 0 0 1013.0 1013.0 0.0
18/06:00am 19.8 17.5 4.7 37 7.3 NW 6 7 3 4 1012.7 1012.7 0.0
18/05:30am 20.5 18.5 4.5 35 7.8 NNW 4 7 2 4 1012.6 1012.6 0.0
18/05:00am 20.2 18.4 3.4 33 7.9 WNW 2 9 1 5 1012.4 1012.4 0.0
18/04:30am 20.7 18.3 4.3 34 7.9 NW 6 9 3 5 1012.0 1012.0 0.0
18/04:00am 19.6 19.1 7.7 46 6.1 CALM 0 0 0 0 1011.8 1011.8 0.0
18/03:30am 19.9 18.2 8.3 47 6.0 SW 7 11 4 6 1011.9 1011.9 0.0
18/03:00am 19.1 17.0 5.9 42 6.5 E 6 7 3 4 1011.6 1011.6 0.0
18/02:30am 21.4 19.3 8.3 43 6.9 E 9 11 5 6 1011.8 1011.8 0.0
18/02:00am 21.6 18.6 7.8 41 7.2 E 13 15 7 8 1011.9 1011.9 0.0
18/01:30am 22.5 18.8 6.3 35 8.2 E 15 17 8 9 1012.1 1012.1 0.0
18/01:00am 21.3 18.1 5.2 35 8.0 E 11 11 6 6 1012.3 1012.3 0.0
18/12:30am 23.4 21.1 5.8 32 8.9 E 7 9 4 5 1012.4 1012.4 0.0

Other Formats:

Comma delimited format used in spreadsheet applications
http://www.bom.gov.au/fwo/IDD60801/IDD60801.95214.axf

JavaScript Object Notation format (JSON) in row-major order
http://www.bom.gov.au/fwo/IDD60801/IDD60801.95214.json